sensor_id;sensor_type;location;lat;lon;timestamp;temperature;humidity
35894;DHT22;21994;48.204;16.516;2022-12-07T00:00:55;6.10;99.90
35894;DHT22;21994;48.204;16.516;2022-12-07T00:03:21;6.00;99.90
35894;DHT22;21994;48.204;16.516;2022-12-07T00:05:47;6.10;99.90
35894;DHT22;21994;48.204;16.516;2022-12-07T00:08:13;6.10;99.90
35894;DHT22;21994;48.204;16.516;2022-12-07T00:10:38;6.10;99.90
35894;DHT22;21994;48.204;16.516;2022-12-07T00:13:04;6.10;99.90
35894;DHT22;21994;48.204;16.516;2022-12-07T00:15:30;6.00;99.90
35894;DHT22;21994;48.204;16.516;2022-12-07T00:17:56;6.00;99.90
35894;DHT22;21994;48.204;16.516;2022-12-07T00:20:21;6.10;99.90
35894;DHT22;21994;48.204;16.516;2022-12-07T00:22:47;6.00;99.90
35894;DHT22;21994;48.204;16.516;2022-12-07T00:25:13;5.90;99.90
35894;DHT22;21994;48.204;16.516;2022-12-07T00:27:39;6.00;99.90
35894;DHT22;21994;48.204;16.516;2022-12-07T00:30:05;6.00;99.90
35894;DHT22;21994;48.204;16.516;2022-12-07T00:32:31;6.00;99.90
35894;DHT22;21994;48.204;16.516;2022-12-07T00:34:57;5.90;99.90
35894;DHT22;21994;48.204;16.516;2022-12-07T00:37:23;6.00;99.90
35894;DHT22;21994;48.204;16.516;2022-12-07T00:39:48;5.90;99.90
35894;DHT22;21994;48.204;16.516;2022-12-07T00:42:14;5.90;99.90
35894;DHT22;21994;48.204;16.516;2022-12-07T00:44:40;5.90;99.90
35894;DHT22;21994;48.204;16.516;2022-12-07T00:47:05;5.90;99.90
35894;DHT22;21994;48.204;16.516;2022-12-07T00:49:31;5.90;99.90
35894;DHT22;21994;48.204;16.516;2022-12-07T00:51:57;5.90;99.90
35894;DHT22;21994;48.204;16.516;2022-12-07T00:54:23;5.90;99.90
35894;DHT22;21994;48.204;16.516;2022-12-07T00:56:48;5.90;99.90
35894;DHT22;21994;48.204;16.516;2022-12-07T00:59:14;5.90;99.90
35894;DHT22;21994;48.204;16.516;2022-12-07T01:01:40;5.90;99.90
35894;DHT22;21994;48.204;16.516;2022-12-07T01:04:06;5.90;99.90
35894;DHT22;21994;48.204;16.516;2022-12-07T01:06:32;5.90;99.90
35894;DHT22;21994;48.204;16.516;2022-12-07T01:08:57;5.90;99.90
35894;DHT22;21994;48.204;16.516;2022-12-07T01:11:25;5.80;99.90
35894;DHT22;21994;48.204;16.516;2022-12-07T01:13:53;5.80;99.90
35894;DHT22;21994;48.204;16.516;2022-12-07T01:16:19;5.80;99.90
35894;DHT22;21994;48.204;16.516;2022-12-07T01:18:47;5.80;99.90
35894;DHT22;21994;48.204;16.516;2022-12-07T01:21:15;5.70;99.90
35894;DHT22;21994;48.204;16.516;2022-12-07T01:23:43;5.70;99.90
35894;DHT22;21994;48.204;16.516;2022-12-07T01:26:11;5.70;99.90
35894;DHT22;21994;48.204;16.516;2022-12-07T01:28:38;5.70;99.90
35894;DHT22;21994;48.204;16.516;2022-12-07T01:31:08;5.70;99.90
35894;DHT22;21994;48.204;16.516;2022-12-07T01:33:37;5.70;99.90
35894;DHT22;21994;48.204;16.516;2022-12-07T01:36:08;5.70;99.90
35894;DHT22;21994;48.204;16.516;2022-12-07T01:38:39;5.70;99.90
35894;DHT22;21994;48.204;16.516;2022-12-07T01:41:05;5.70;99.90
35894;DHT22;21994;48.204;16.516;2022-12-07T01:43:32;5.60;99.90
35894;DHT22;21994;48.204;16.516;2022-12-07T01:45:59;5.50;99.90
35894;DHT22;21994;48.204;16.516;2022-12-07T01:48:27;5.50;99.90
35894;DHT22;21994;48.204;16.516;2022-12-07T01:50:56;5.50;99.90
35894;DHT22;21994;48.204;16.516;2022-12-07T01:53:26;5.50;99.90
35894;DHT22;21994;48.204;16.516;2022-12-07T01:55:54;5.50;99.90
35894;DHT22;21994;48.204;16.516;2022-12-07T01:58:22;5.50;99.90
35894;DHT22;21994;48.204;16.516;2022-12-07T02:00:47;5.50;99.90
35894;DHT22;21994;48.204;16.516;2022-12-07T02:05:47;5.60;99.90
35894;DHT22;21994;48.204;16.516;2022-12-07T02:08:14;5.50;99.90
35894;DHT22;21994;48.204;16.516;2022-12-07T02:10:40;5.50;99.90
35894;DHT22;21994;48.204;16.516;2022-12-07T02:13:08;5.50;99.90
35894;DHT22;21994;48.204;16.516;2022-12-07T02:18:16;5.60;99.90
35894;DHT22;21994;48.204;16.516;2022-12-07T02:21:07;5.60;99.90
35894;DHT22;21994;48.204;16.516;2022-12-07T02:26:45;5.60;99.90
35894;DHT22;21994;48.204;16.516;2022-12-07T02:29:23;5.60;99.90
35894;DHT22;21994;48.204;16.516;2022-12-07T02:34:31;5.60;99.90
35894;DHT22;21994;48.204;16.516;2022-12-07T02:37:03;5.70;99.90
35894;DHT22;21994;48.204;16.516;2022-12-07T02:39:47;5.70;99.90
35894;DHT22;21994;48.204;16.516;2022-12-07T02:42:17;5.70;99.90
35894;DHT22;21994;48.204;16.516;2022-12-07T02:44:50;5.60;99.90
35894;DHT22;21994;48.204;16.516;2022-12-07T02:47:17;5.60;99.90
35894;DHT22;21994;48.204;16.516;2022-12-07T02:49:44;5.60;99.90
35894;DHT22;21994;48.204;16.516;2022-12-07T02:52:10;5.60;99.90
35894;DHT22;21994;48.204;16.516;2022-12-07T02:54:35;5.60;99.90
35894;DHT22;21994;48.204;16.516;2022-12-07T03:08:31;5.60;99.90
35894;DHT22;21994;48.204;16.516;2022-12-07T03:11:06;5.60;99.90
35894;DHT22;21994;48.204;16.516;2022-12-07T03:13:39;5.50;99.90
35894;DHT22;21994;48.204;16.516;2022-12-07T03:16:20;5.60;99.90
35894;DHT22;21994;48.204;16.516;2022-12-07T03:19:06;5.60;99.90
35894;DHT22;21994;48.204;16.516;2022-12-07T03:24:39;5.50;99.90
35894;DHT22;21994;48.204;16.516;2022-12-07T03:27:19;5.50;99.90
35894;DHT22;21994;48.204;16.516;2022-12-07T03:30:34;5.50;99.90
35894;DHT22;21994;48.204;16.516;2022-12-07T03:33:01;5.50;99.90
35894;DHT22;21994;48.204;16.516;2022-12-07T03:35:33;5.50;99.90
35894;DHT22;21994;48.204;16.516;2022-12-07T03:38:08;5.50;99.90
35894;DHT22;21994;48.204;16.516;2022-12-07T03:40:44;5.50;99.90
35894;DHT22;21994;48.204;16.516;2022-12-07T03:43:31;5.50;99.90
35894;DHT22;21994;48.204;16.516;2022-12-07T03:46:04;5.60;99.90
35894;DHT22;21994;48.204;16.516;2022-12-07T03:49:40;5.50;99.90
35894;DHT22;21994;48.204;16.516;2022-12-07T03:54:36;5.50;99.90
35894;DHT22;21994;48.204;16.516;2022-12-07T03:57:26;5.50;99.90
35894;DHT22;21994;48.204;16.516;2022-12-07T03:59:54;5.50;99.90
35894;DHT22;21994;48.204;16.516;2022-12-07T04:02:23;5.50;99.90
35894;DHT22;21994;48.204;16.516;2022-12-07T04:04:50;5.60;99.90
35894;DHT22;21994;48.204;16.516;2022-12-07T04:07:16;5.50;99.90
35894;DHT22;21994;48.204;16.516;2022-12-07T04:09:42;5.50;99.90
35894;DHT22;21994;48.204;16.516;2022-12-07T04:12:07;5.50;99.90
35894;DHT22;21994;48.204;16.516;2022-12-07T04:14:33;5.60;99.90
35894;DHT22;21994;48.204;16.516;2022-12-07T04:16:59;5.50;99.90
35894;DHT22;21994;48.204;16.516;2022-12-07T04:19:26;5.50;99.90
35894;DHT22;21994;48.204;16.516;2022-12-07T04:21:53;5.50;99.90
35894;DHT22;21994;48.204;16.516;2022-12-07T04:24:19;5.50;99.90
35894;DHT22;21994;48.204;16.516;2022-12-07T04:26:46;5.50;99.90
35894;DHT22;21994;48.204;16.516;2022-12-07T04:29:12;5.50;99.90
35894;DHT22;21994;48.204;16.516;2022-12-07T04:31:38;5.40;99.90
35894;DHT22;21994;48.204;16.516;2022-12-07T04:34:05;5.40;99.90
35894;DHT22;21994;48.204;16.516;2022-12-07T04:36:31;5.40;99.90
35894;DHT22;21994;48.204;16.516;2022-12-07T04:38:57;5.40;99.90
35894;DHT22;21994;48.204;16.516;2022-12-07T04:41:23;5.30;99.90
35894;DHT22;21994;48.204;16.516;2022-12-07T04:43:53;5.30;99.90
35894;DHT22;21994;48.204;16.516;2022-12-07T04:46:20;5.40;99.90
35894;DHT22;21994;48.204;16.516;2022-12-07T04:48:46;5.30;99.90
35894;DHT22;21994;48.204;16.516;2022-12-07T04:51:12;5.20;99.90
35894;DHT22;21994;48.204;16.516;2022-12-07T04:53:39;5.30;99.90
35894;DHT22;21994;48.204;16.516;2022-12-07T04:56:04;5.30;99.90
35894;DHT22;21994;48.204;16.516;2022-12-07T04:58:30;5.40;99.90
35894;DHT22;21994;48.204;16.516;2022-12-07T05:00:56;5.40;99.90
35894;DHT22;21994;48.204;16.516;2022-12-07T05:03:22;5.40;99.90
35894;DHT22;21994;48.204;16.516;2022-12-07T05:05:48;5.30;99.90
35894;DHT22;21994;48.204;16.516;2022-12-07T05:08:13;5.40;99.90
35894;DHT22;21994;48.204;16.516;2022-12-07T05:10:39;5.40;99.90
35894;DHT22;21994;48.204;16.516;2022-12-07T05:13:05;5.30;99.90
35894;DHT22;21994;48.204;16.516;2022-12-07T05:15:31;5.40;99.90
35894;DHT22;21994;48.204;16.516;2022-12-07T05:17:56;5.40;99.90
35894;DHT22;21994;48.204;16.516;2022-12-07T05:20:22;5.40;99.90
35894;DHT22;21994;48.204;16.516;2022-12-07T05:22:48;5.40;99.90
35894;DHT22;21994;48.204;16.516;2022-12-07T05:25:13;5.40;99.90
35894;DHT22;21994;48.204;16.516;2022-12-07T05:27:39;5.30;99.90
35894;DHT22;21994;48.204;16.516;2022-12-07T05:30:05;5.30;99.90
35894;DHT22;21994;48.204;16.516;2022-12-07T05:32:31;5.20;99.90
35894;DHT22;21994;48.204;16.516;2022-12-07T05:34:57;5.30;99.90
35894;DHT22;21994;48.204;16.516;2022-12-07T05:37:23;5.30;99.90
35894;DHT22;21994;48.204;16.516;2022-12-07T05:39:49;5.30;99.90
35894;DHT22;21994;48.204;16.516;2022-12-07T05:42:14;5.20;99.90
35894;DHT22;21994;48.204;16.516;2022-12-07T05:44:41;5.30;99.90
35894;DHT22;21994;48.204;16.516;2022-12-07T05:47:08;5.30;99.90
35894;DHT22;21994;48.204;16.516;2022-12-07T05:49:34;5.30;99.90
35894;DHT22;21994;48.204;16.516;2022-12-07T05:52:00;5.20;99.90
35894;DHT22;21994;48.204;16.516;2022-12-07T05:54:26;5.20;99.90
35894;DHT22;21994;48.204;16.516;2022-12-07T05:56:52;5.30;99.90
35894;DHT22;21994;48.204;16.516;2022-12-07T05:59:18;5.20;99.90
35894;DHT22;21994;48.204;16.516;2022-12-07T06:04:22;5.30;99.90
35894;DHT22;21994;48.204;16.516;2022-12-07T06:06:47;5.30;99.90
35894;DHT22;21994;48.204;16.516;2022-12-07T06:09:13;5.30;99.90
35894;DHT22;21994;48.204;16.516;2022-12-07T06:11:39;5.30;99.90
35894;DHT22;21994;48.204;16.516;2022-12-07T06:14:24;5.30;99.90
35894;DHT22;21994;48.204;16.516;2022-12-07T06:16:50;5.20;99.90
35894;DHT22;21994;48.204;16.516;2022-12-07T06:19:15;5.20;99.90
35894;DHT22;21994;48.204;16.516;2022-12-07T06:21:41;5.20;99.90
35894;DHT22;21994;48.204;16.516;2022-12-07T06:24:08;5.10;99.90
35894;DHT22;21994;48.204;16.516;2022-12-07T06:26:35;5.10;99.90
35894;DHT22;21994;48.204;16.516;2022-12-07T06:29:01;5.10;99.90
35894;DHT22;21994;48.204;16.516;2022-12-07T06:31:27;5.10;99.90
35894;DHT22;21994;48.204;16.516;2022-12-07T06:33:59;5.00;99.90
35894;DHT22;21994;48.204;16.516;2022-12-07T06:36:26;5.10;99.90
35894;DHT22;21994;48.204;16.516;2022-12-07T06:38:52;5.10;99.90
35894;DHT22;21994;48.204;16.516;2022-12-07T06:41:18;5.10;99.90
35894;DHT22;21994;48.204;16.516;2022-12-07T06:43:44;5.10;99.90
35894;DHT22;21994;48.204;16.516;2022-12-07T06:46:10;5.10;99.90
35894;DHT22;21994;48.204;16.516;2022-12-07T06:48:36;5.30;99.90
35894;DHT22;21994;48.204;16.516;2022-12-07T06:51:01;5.20;99.90
35894;DHT22;21994;48.204;16.516;2022-12-07T06:53:27;5.30;99.90
35894;DHT22;21994;48.204;16.516;2022-12-07T06:55:53;5.40;99.90
35894;DHT22;21994;48.204;16.516;2022-12-07T06:58:19;5.40;99.90
35894;DHT22;21994;48.204;16.516;2022-12-07T07:00:44;5.30;99.90
35894;DHT22;21994;48.204;16.516;2022-12-07T07:03:10;5.30;99.90
35894;DHT22;21994;48.204;16.516;2022-12-07T07:05:36;5.40;99.90
35894;DHT22;21994;48.204;16.516;2022-12-07T07:08:02;5.40;99.90
35894;DHT22;21994;48.204;16.516;2022-12-07T07:10:29;5.30;99.90
35894;DHT22;21994;48.204;16.516;2022-12-07T07:12:54;5.30;99.90
35894;DHT22;21994;48.204;16.516;2022-12-07T07:15:20;5.20;99.90
35894;DHT22;21994;48.204;16.516;2022-12-07T07:17:46;5.10;99.90
35894;DHT22;21994;48.204;16.516;2022-12-07T07:20:12;5.10;99.90
35894;DHT22;21994;48.204;16.516;2022-12-07T07:22:38;5.10;99.90
35894;DHT22;21994;48.204;16.516;2022-12-07T07:25:04;5.00;99.90
35894;DHT22;21994;48.204;16.516;2022-12-07T07:27:29;5.10;99.90
35894;DHT22;21994;48.204;16.516;2022-12-07T07:29:55;5.10;99.90
35894;DHT22;21994;48.204;16.516;2022-12-07T07:32:21;5.10;99.90
35894;DHT22;21994;48.204;16.516;2022-12-07T07:34:47;5.20;99.90
35894;DHT22;21994;48.204;16.516;2022-12-07T07:37:13;5.10;99.90
35894;DHT22;21994;48.204;16.516;2022-12-07T07:39:39;5.20;99.90
35894;DHT22;21994;48.204;16.516;2022-12-07T07:42:05;5.20;99.90
35894;DHT22;21994;48.204;16.516;2022-12-07T07:44:33;5.30;99.90
35894;DHT22;21994;48.204;16.516;2022-12-07T07:46:59;5.50;99.90
35894;DHT22;21994;48.204;16.516;2022-12-07T07:49:25;5.60;99.90
35894;DHT22;21994;48.204;16.516;2022-12-07T07:51:51;5.60;99.90
35894;DHT22;21994;48.204;16.516;2022-12-07T07:54:16;5.60;99.90
35894;DHT22;21994;48.204;16.516;2022-12-07T07:56:42;5.70;99.90
35894;DHT22;21994;48.204;16.516;2022-12-07T07:59:08;5.70;99.90
35894;DHT22;21994;48.204;16.516;2022-12-07T08:01:33;5.70;99.90
35894;DHT22;21994;48.204;16.516;2022-12-07T08:03:59;5.60;99.90
35894;DHT22;21994;48.204;16.516;2022-12-07T08:06:25;5.70;99.90
35894;DHT22;21994;48.204;16.516;2022-12-07T08:08:51;5.80;99.90
35894;DHT22;21994;48.204;16.516;2022-12-07T08:11:17;5.70;99.90
35894;DHT22;21994;48.204;16.516;2022-12-07T08:13:44;5.70;99.90
35894;DHT22;21994;48.204;16.516;2022-12-07T08:16:15;5.80;99.90
35894;DHT22;21994;48.204;16.516;2022-12-07T08:18:41;5.80;99.90
35894;DHT22;21994;48.204;16.516;2022-12-07T08:21:09;5.80;99.90
35894;DHT22;21994;48.204;16.516;2022-12-07T08:23:37;5.90;99.90
35894;DHT22;21994;48.204;16.516;2022-12-07T08:26:03;6.00;99.90
35894;DHT22;21994;48.204;16.516;2022-12-07T08:28:30;6.00;99.90
35894;DHT22;21994;48.204;16.516;2022-12-07T08:30:59;6.10;99.90
35894;DHT22;21994;48.204;16.516;2022-12-07T08:33:26;6.10;99.90
35894;DHT22;21994;48.204;16.516;2022-12-07T08:35:52;6.20;99.90
35894;DHT22;21994;48.204;16.516;2022-12-07T08:38:18;6.20;99.90
35894;DHT22;21994;48.204;16.516;2022-12-07T08:40:43;6.20;99.90
35894;DHT22;21994;48.204;16.516;2022-12-07T08:43:09;6.20;99.90
35894;DHT22;21994;48.204;16.516;2022-12-07T08:45:35;6.20;99.90
35894;DHT22;21994;48.204;16.516;2022-12-07T08:48:05;6.20;99.90
35894;DHT22;21994;48.204;16.516;2022-12-07T08:50:32;6.30;99.90
35894;DHT22;21994;48.204;16.516;2022-12-07T08:52:58;6.40;99.90
35894;DHT22;21994;48.204;16.516;2022-12-07T08:55:24;6.30;99.90
35894;DHT22;21994;48.204;16.516;2022-12-07T08:57:51;6.30;99.90
35894;DHT22;21994;48.204;16.516;2022-12-07T09:00:17;6.30;99.90
35894;DHT22;21994;48.204;16.516;2022-12-07T09:02:45;6.30;99.90
35894;DHT22;21994;48.204;16.516;2022-12-07T09:05:12;6.40;99.90
35894;DHT22;21994;48.204;16.516;2022-12-07T09:07:40;6.40;99.90
35894;DHT22;21994;48.204;16.516;2022-12-07T09:10:07;6.40;99.90
35894;DHT22;21994;48.204;16.516;2022-12-07T09:12:32;6.40;99.90
35894;DHT22;21994;48.204;16.516;2022-12-07T09:14:58;6.40;99.90
35894;DHT22;21994;48.204;16.516;2022-12-07T09:17:26;6.50;99.90
35894;DHT22;21994;48.204;16.516;2022-12-07T09:19:52;6.60;99.90
35894;DHT22;21994;48.204;16.516;2022-12-07T09:22:17;6.60;99.90
35894;DHT22;21994;48.204;16.516;2022-12-07T09:24:43;6.60;99.90
35894;DHT22;21994;48.204;16.516;2022-12-07T09:27:11;6.70;99.90
35894;DHT22;21994;48.204;16.516;2022-12-07T09:29:37;6.80;99.90
35894;DHT22;21994;48.204;16.516;2022-12-07T09:32:03;6.90;99.90
35894;DHT22;21994;48.204;16.516;2022-12-07T09:34:32;6.80;99.90
35894;DHT22;21994;48.204;16.516;2022-12-07T09:36:58;7.10;99.90
35894;DHT22;21994;48.204;16.516;2022-12-07T09:39:24;7.90;99.90
35894;DHT22;21994;48.204;16.516;2022-12-07T09:41:49;9.20;99.90
35894;DHT22;21994;48.204;16.516;2022-12-07T09:44:21;10.40;99.90
35894;DHT22;21994;48.204;16.516;2022-12-07T09:46:49;11.50;98.60
35894;DHT22;21994;48.204;16.516;2022-12-07T09:49:19;12.00;97.40
35894;DHT22;21994;48.204;16.516;2022-12-07T09:51:46;12.60;95.90
35894;DHT22;21994;48.204;16.516;2022-12-07T09:54:13;12.20;95.90
35894;DHT22;21994;48.204;16.516;2022-12-07T09:56:41;12.10;95.80
35894;DHT22;21994;48.204;16.516;2022-12-07T09:59:09;12.00;95.70
35894;DHT22;21994;48.204;16.516;2022-12-07T10:01:39;12.10;95.90
35894;DHT22;21994;48.204;16.516;2022-12-07T10:04:12;12.50;95.80
35894;DHT22;21994;48.204;16.516;2022-12-07T10:06:38;12.90;95.10
35894;DHT22;21994;48.204;16.516;2022-12-07T10:09:11;13.20;94.80
35894;DHT22;21994;48.204;16.516;2022-12-07T10:14:23;13.70;94.20
35894;DHT22;21994;48.204;16.516;2022-12-07T10:16:49;13.40;94.90
35894;DHT22;21994;48.204;16.516;2022-12-07T10:19:33;13.50;94.30
35894;DHT22;21994;48.204;16.516;2022-12-07T10:22:09;13.30;93.40
35894;DHT22;21994;48.204;16.516;2022-12-07T10:24:42;12.30;94.20
35894;DHT22;21994;48.204;16.516;2022-12-07T10:27:19;12.40;94.30
35894;DHT22;21994;48.204;16.516;2022-12-07T10:29:48;12.50;94.10
35894;DHT22;21994;48.204;16.516;2022-12-07T10:34:44;12.50;94.90
35894;DHT22;21994;48.204;16.516;2022-12-07T10:39:43;11.70;94.30
35894;DHT22;21994;48.204;16.516;2022-12-07T10:42:20;10.60;94.50
35894;DHT22;21994;48.204;16.516;2022-12-07T10:45:09;9.50;96.60
35894;DHT22;21994;48.204;16.516;2022-12-07T10:48:41;8.80;96.80
35894;DHT22;21994;48.204;16.516;2022-12-07T10:53:40;7.70;98.90
35894;DHT22;21994;48.204;16.516;2022-12-07T10:56:21;7.50;99.40
35894;DHT22;21994;48.204;16.516;2022-12-07T11:07:32;7.70;99.10
35894;DHT22;21994;48.204;16.516;2022-12-07T11:10:02;7.70;99.30
35894;DHT22;21994;48.204;16.516;2022-12-07T11:12:53;7.80;99.50
35894;DHT22;21994;48.204;16.516;2022-12-07T11:35:23;8.50;98.40
35894;DHT22;21994;48.204;16.516;2022-12-07T11:38:02;8.50;98.50
35894;DHT22;21994;48.204;16.516;2022-12-07T11:40:34;8.70;99.00
35894;DHT22;21994;48.204;16.516;2022-12-07T11:43:11;8.60;98.30
35894;DHT22;21994;48.204;16.516;2022-12-07T11:45:41;8.30;98.40
35894;DHT22;21994;48.204;16.516;2022-12-07T11:50:38;7.50;98.90
35894;DHT22;21994;48.204;16.516;2022-12-07T11:53:17;7.30;99.70
35894;DHT22;21994;48.204;16.516;2022-12-07T11:56:00;7.10;99.00
35894;DHT22;21994;48.204;16.516;2022-12-07T12:03:58;6.90;99.90
35894;DHT22;21994;48.204;16.516;2022-12-07T12:06:29;6.80;99.90
35894;DHT22;21994;48.204;16.516;2022-12-07T12:20:06;7.10;99.60
35894;DHT22;21994;48.204;16.516;2022-12-07T12:25:27;7.20;99.60
35894;DHT22;21994;48.204;16.516;2022-12-07T12:27:55;7.20;99.50
35894;DHT22;21994;48.204;16.516;2022-12-07T12:30:24;7.30;99.70
35894;DHT22;21994;48.204;16.516;2022-12-07T12:33:00;7.40;99.10
35894;DHT22;21994;48.204;16.516;2022-12-07T12:38:23;7.70;98.60
35894;DHT22;21994;48.204;16.516;2022-12-07T12:41:10;7.70;99.10
35894;DHT22;21994;48.204;16.516;2022-12-07T12:46:52;7.80;98.00
35894;DHT22;21994;48.204;16.516;2022-12-07T12:51:51;7.80;98.60
35894;DHT22;21994;48.204;16.516;2022-12-07T12:59:25;7.90;98.40
35894;DHT22;21994;48.204;16.516;2022-12-07T13:05:15;8.10;98.90
35894;DHT22;21994;48.204;16.516;2022-12-07T13:13:02;8.20;99.00
35894;DHT22;21994;48.204;16.516;2022-12-07T13:15:33;8.20;98.30
35894;DHT22;21994;48.204;16.516;2022-12-07T13:18:22;8.20;99.00
35894;DHT22;21994;48.204;16.516;2022-12-07T13:34:31;7.50;99.70
35894;DHT22;21994;48.204;16.516;2022-12-07T13:37:01;7.40;99.50
35894;DHT22;21994;48.204;16.516;2022-12-07T13:39:32;7.40;99.60
35894;DHT22;21994;48.204;16.516;2022-12-07T13:41:59;7.60;99.40
35894;DHT22;21994;48.204;16.516;2022-12-07T13:44:27;7.70;99.70
35894;DHT22;21994;48.204;16.516;2022-12-07T13:49:36;7.60;99.60
35894;DHT22;21994;48.204;16.516;2022-12-07T13:52:20;7.60;99.80
35894;DHT22;21994;48.204;16.516;2022-12-07T13:54:56;7.40;99.80
35894;DHT22;21994;48.204;16.516;2022-12-07T13:57:27;7.10;99.90
35894;DHT22;21994;48.204;16.516;2022-12-07T13:59:54;7.00;99.90
35894;DHT22;21994;48.204;16.516;2022-12-07T14:02:21;6.90;99.90
35894;DHT22;21994;48.204;16.516;2022-12-07T14:04:50;6.80;99.90
35894;DHT22;21994;48.204;16.516;2022-12-07T14:09:55;6.70;99.90
35894;DHT22;21994;48.204;16.516;2022-12-07T14:12:23;6.60;99.90
35894;DHT22;21994;48.204;16.516;2022-12-07T14:14:49;6.50;99.90
35894;DHT22;21994;48.204;16.516;2022-12-07T14:17:17;6.40;99.90
35894;DHT22;21994;48.204;16.516;2022-12-07T14:19:57;6.40;99.90
35894;DHT22;21994;48.204;16.516;2022-12-07T14:22:35;6.30;99.90
35894;DHT22;21994;48.204;16.516;2022-12-07T14:28:43;6.20;99.90
35894;DHT22;21994;48.204;16.516;2022-12-07T14:31:18;6.10;99.90
35894;DHT22;21994;48.204;16.516;2022-12-07T14:33:47;6.10;99.90
35894;DHT22;21994;48.204;16.516;2022-12-07T14:36:13;6.10;99.90
35894;DHT22;21994;48.204;16.516;2022-12-07T14:38:39;6.00;99.90
35894;DHT22;21994;48.204;16.516;2022-12-07T14:41:06;6.00;99.90
35894;DHT22;21994;48.204;16.516;2022-12-07T14:43:56;6.00;99.90
35894;DHT22;21994;48.204;16.516;2022-12-07T14:46:22;6.00;99.90
35894;DHT22;21994;48.204;16.516;2022-12-07T14:48:48;6.00;99.90
35894;DHT22;21994;48.204;16.516;2022-12-07T14:51:14;6.00;99.90
35894;DHT22;21994;48.204;16.516;2022-12-07T14:53:41;6.00;99.90
35894;DHT22;21994;48.204;16.516;2022-12-07T14:56:10;6.00;99.90
35894;DHT22;21994;48.204;16.516;2022-12-07T14:58:35;6.00;99.90
35894;DHT22;21994;48.204;16.516;2022-12-07T15:01:01;5.90;99.90
35894;DHT22;21994;48.204;16.516;2022-12-07T15:03:27;5.90;99.90
35894;DHT22;21994;48.204;16.516;2022-12-07T15:05:52;5.90;99.90
35894;DHT22;21994;48.204;16.516;2022-12-07T15:08:18;5.80;99.90
35894;DHT22;21994;48.204;16.516;2022-12-07T15:10:44;5.80;99.90
35894;DHT22;21994;48.204;16.516;2022-12-07T15:13:10;5.80;99.90
35894;DHT22;21994;48.204;16.516;2022-12-07T15:15:54;5.80;99.90
35894;DHT22;21994;48.204;16.516;2022-12-07T15:18:21;5.80;99.90
35894;DHT22;21994;48.204;16.516;2022-12-07T15:20:47;5.80;99.90
35894;DHT22;21994;48.204;16.516;2022-12-07T15:23:13;5.80;99.90
35894;DHT22;21994;48.204;16.516;2022-12-07T15:25:43;5.90;99.90
35894;DHT22;21994;48.204;16.516;2022-12-07T15:28:09;5.90;99.90
35894;DHT22;21994;48.204;16.516;2022-12-07T15:30:39;5.80;99.90
35894;DHT22;21994;48.204;16.516;2022-12-07T15:33:05;5.90;99.90
35894;DHT22;21994;48.204;16.516;2022-12-07T15:35:31;5.80;99.90
35894;DHT22;21994;48.204;16.516;2022-12-07T15:37:56;5.90;99.90
35894;DHT22;21994;48.204;16.516;2022-12-07T15:40:22;5.90;99.90
35894;DHT22;21994;48.204;16.516;2022-12-07T15:42:48;5.80;99.90
35894;DHT22;21994;48.204;16.516;2022-12-07T15:45:15;5.80;99.90
35894;DHT22;21994;48.204;16.516;2022-12-07T15:47:41;5.90;99.90
35894;DHT22;21994;48.204;16.516;2022-12-07T15:50:09;5.90;99.90
35894;DHT22;21994;48.204;16.516;2022-12-07T15:52:37;5.90;99.90
35894;DHT22;21994;48.204;16.516;2022-12-07T15:55:03;5.90;99.90
35894;DHT22;21994;48.204;16.516;2022-12-07T15:57:30;5.90;99.90
35894;DHT22;21994;48.204;16.516;2022-12-07T15:59:56;5.80;99.90
35894;DHT22;21994;48.204;16.516;2022-12-07T16:02:22;5.80;99.90
35894;DHT22;21994;48.204;16.516;2022-12-07T16:04:48;5.90;99.90
35894;DHT22;21994;48.204;16.516;2022-12-07T16:07:15;5.80;99.90
35894;DHT22;21994;48.204;16.516;2022-12-07T16:09:42;5.80;99.90
35894;DHT22;21994;48.204;16.516;2022-12-07T16:12:09;5.80;99.90
35894;DHT22;21994;48.204;16.516;2022-12-07T16:14:35;5.80;99.90
35894;DHT22;21994;48.204;16.516;2022-12-07T16:17:01;5.80;99.90
35894;DHT22;21994;48.204;16.516;2022-12-07T16:19:27;5.80;99.90
35894;DHT22;21994;48.204;16.516;2022-12-07T16:21:53;5.70;99.90
35894;DHT22;21994;48.204;16.516;2022-12-07T16:24:19;5.70;99.90
35894;DHT22;21994;48.204;16.516;2022-12-07T16:26:45;5.60;99.90
35894;DHT22;21994;48.204;16.516;2022-12-07T16:29:11;5.50;99.90
35894;DHT22;21994;48.204;16.516;2022-12-07T16:31:38;5.50;99.90
35894;DHT22;21994;48.204;16.516;2022-12-07T16:34:03;5.50;99.90
35894;DHT22;21994;48.204;16.516;2022-12-07T16:36:29;5.40;99.90
35894;DHT22;21994;48.204;16.516;2022-12-07T16:38:55;5.30;99.90
35894;DHT22;21994;48.204;16.516;2022-12-07T16:41:24;5.30;99.90
35894;DHT22;21994;48.204;16.516;2022-12-07T16:43:50;5.30;99.90
35894;DHT22;21994;48.204;16.516;2022-12-07T16:46:16;5.30;99.90
35894;DHT22;21994;48.204;16.516;2022-12-07T16:48:42;5.30;99.90
35894;DHT22;21994;48.204;16.516;2022-12-07T16:51:08;5.30;99.90
35894;DHT22;21994;48.204;16.516;2022-12-07T16:53:36;5.30;99.90
35894;DHT22;21994;48.204;16.516;2022-12-07T16:56:02;5.20;99.90
35894;DHT22;21994;48.204;16.516;2022-12-07T16:58:28;5.20;99.90
35894;DHT22;21994;48.204;16.516;2022-12-07T17:00:54;5.20;99.90
35894;DHT22;21994;48.204;16.516;2022-12-07T17:03:20;5.10;99.90
35894;DHT22;21994;48.204;16.516;2022-12-07T17:05:46;5.20;99.90
35894;DHT22;21994;48.204;16.516;2022-12-07T17:08:12;5.20;99.90
35894;DHT22;21994;48.204;16.516;2022-12-07T17:10:40;5.20;99.90
35894;DHT22;21994;48.204;16.516;2022-12-07T17:13:07;5.20;99.90
35894;DHT22;21994;48.204;16.516;2022-12-07T17:16:10;5.10;99.90
35894;DHT22;21994;48.204;16.516;2022-12-07T17:18:36;5.00;99.90
35894;DHT22;21994;48.204;16.516;2022-12-07T17:21:05;5.10;99.90
35894;DHT22;21994;48.204;16.516;2022-12-07T17:23:33;4.90;99.90
35894;DHT22;21994;48.204;16.516;2022-12-07T17:26:07;4.90;99.90
35894;DHT22;21994;48.204;16.516;2022-12-07T17:28:37;4.90;99.90
35894;DHT22;21994;48.204;16.516;2022-12-07T17:31:07;4.90;99.90
35894;DHT22;21994;48.204;16.516;2022-12-07T17:33:34;4.80;99.90
35894;DHT22;21994;48.204;16.516;2022-12-07T17:36:00;4.80;99.90
35894;DHT22;21994;48.204;16.516;2022-12-07T17:38:27;4.90;99.90
35894;DHT22;21994;48.204;16.516;2022-12-07T17:40:53;4.90;99.90
35894;DHT22;21994;48.204;16.516;2022-12-07T17:43:19;4.90;99.90
35894;DHT22;21994;48.204;16.516;2022-12-07T17:45:44;4.80;99.90
35894;DHT22;21994;48.204;16.516;2022-12-07T17:48:10;4.70;99.90
35894;DHT22;21994;48.204;16.516;2022-12-07T17:50:38;4.80;99.90
35894;DHT22;21994;48.204;16.516;2022-12-07T17:53:23;4.80;99.90
35894;DHT22;21994;48.204;16.516;2022-12-07T17:55:51;4.90;99.90